Terminal Aerodrome Forecast
Issued by NWS

Home | Current Version | Previous Version | Text Only | Print | Product List | Glossary On
Versions: 1 2 3 4 5 6 7 8 9 10 11 12
000
FTUS41 KILN 190500
TAFLCK
TAF
KLCK 190520Z 1906/2006 02005KT P6SM SCT250
     FM191300 05010G18KT P6SM FEW035
     FM200000 05004KT P6SM SKC=

USA.gov is the U.S. government's official web portal to all federal, state and local government web resources and services.